Terminal Aerodrome Forecast
Issued by NWS

Home | Current Version | Previous Version | Text Only | Print | Product List | Glossary On
Versions: 1 2 3 4 5 6 7 8 9 10 11 12 13 14 15 16
335
FTUS43 KMQT 100535
TAFCMX
TAF
KCMX 100535Z 1006/1106 35014G22KT 1 1/2SM -SHSN BLSN OVC014
      TEMPO 1006/1008 3SM -SHSN
     FM102200 33010G16KT 3SM -SHSN BLSN OVC019=

USA.gov is the U.S. government's official web portal to all federal, state and local government web resources and services.